sensor_id;sensor_type;location;lat;lon;timestamp;P1;durP1;ratioP1;P2;durP2;ratioP2
11171;SDS011;5642;50.830;12.082;2023-08-21T00:00:26;4.60;;;4.30;;
11171;SDS011;5642;50.830;12.082;2023-08-21T00:02:52;5.03;;;4.43;;
11171;SDS011;5642;50.830;12.082;2023-08-21T00:05:18;4.35;;;4.05;;
11171;SDS011;5642;50.830;12.082;2023-08-21T00:07:45;4.55;;;4.15;;
11171;SDS011;5642;50.830;12.082;2023-08-21T00:10:12;4.50;;;4.20;;
11171;SDS011;5642;50.830;12.082;2023-08-21T00:12:39;4.07;;;3.75;;
11171;SDS011;5642;50.830;12.082;2023-08-21T00:15:06;4.25;;;3.95;;
11171;SDS011;5642;50.830;12.082;2023-08-21T00:17:32;3.70;;;3.40;;
11171;SDS011;5642;50.830;12.082;2023-08-21T00:19:59;4.00;;;3.70;;
11171;SDS011;5642;50.830;12.082;2023-08-21T00:22:25;3.42;;;3.22;;
11171;SDS011;5642;50.830;12.082;2023-08-21T00:24:51;3.97;;;3.67;;
11171;SDS011;5642;50.830;12.082;2023-08-21T00:27:17;3.65;;;3.30;;
11171;SDS011;5642;50.830;12.082;2023-08-21T00:29:43;3.80;;;3.50;;
11171;SDS011;5642;50.830;12.082;2023-08-21T00:32:10;3.83;;;3.53;;
11171;SDS011;5642;50.830;12.082;2023-08-21T00:34:38;3.95;;;3.65;;
11171;SDS011;5642;50.830;12.082;2023-08-21T00:37:04;4.10;;;3.80;;
11171;SDS011;5642;50.830;12.082;2023-08-21T00:39:30;3.53;;;3.33;;
11171;SDS011;5642;50.830;12.082;2023-08-21T00:41:57;3.20;;;3.00;;
11171;SDS011;5642;50.830;12.082;2023-08-21T00:44:23;3.13;;;2.92;;
11171;SDS011;5642;50.830;12.082;2023-08-21T00:46:50;2.63;;;2.50;;
11171;SDS011;5642;50.830;12.082;2023-08-21T00:49:18;2.67;;;2.50;;
11171;SDS011;5642;50.830;12.082;2023-08-21T00:51:45;2.70;;;2.50;;
11171;SDS011;5642;50.830;12.082;2023-08-21T00:54:12;2.55;;;2.40;;
11171;SDS011;5642;50.830;12.082;2023-08-21T00:56:39;2.65;;;2.45;;
11171;SDS011;5642;50.830;12.082;2023-08-21T00:59:06;2.30;;;2.20;;
11171;SDS011;5642;50.830;12.082;2023-08-21T01:01:32;2.10;;;2.00;;
11171;SDS011;5642;50.830;12.082;2023-08-21T01:04:00;2.50;;;2.40;;
11171;SDS011;5642;50.830;12.082;2023-08-21T01:06:26;2.40;;;2.25;;
11171;SDS011;5642;50.830;12.082;2023-08-21T01:11:27;2.67;;;2.47;;
11171;SDS011;5642;50.830;12.082;2023-08-21T01:16:58;2.53;;;2.35;;
11171;SDS011;5642;50.830;12.082;2023-08-21T01:19:30;3.25;;;3.05;;
11171;SDS011;5642;50.830;12.082;2023-08-21T01:22:06;3.22;;;2.92;;
11171;SDS011;5642;50.830;12.082;2023-08-21T01:24:33;2.60;;;2.50;;
11171;SDS011;5642;50.830;12.082;2023-08-21T01:26:59;2.30;;;2.20;;
11171;SDS011;5642;50.830;12.082;2023-08-21T01:29:25;2.53;;;2.33;;
11171;SDS011;5642;50.830;12.082;2023-08-21T01:34:33;2.65;;;2.50;;
11171;SDS011;5642;50.830;12.082;2023-08-21T01:37:02;3.15;;;2.78;;
11171;SDS011;5642;50.830;12.082;2023-08-21T01:39:29;2.85;;;2.67;;
11171;SDS011;5642;50.830;12.082;2023-08-21T01:41:56;2.97;;;2.78;;
11171;SDS011;5642;50.830;12.082;2023-08-21T01:44:23;2.65;;;2.47;;
11171;SDS011;5642;50.830;12.082;2023-08-21T01:46:49;2.80;;;2.60;;
11171;SDS011;5642;50.830;12.082;2023-08-21T01:49:17;2.92;;;2.72;;
11171;SDS011;5642;50.830;12.082;2023-08-21T01:51:45;2.90;;;2.70;;
11171;SDS011;5642;50.830;12.082;2023-08-21T01:54:11;3.05;;;2.80;;
11171;SDS011;5642;50.830;12.082;2023-08-21T01:56:38;3.00;;;2.80;;
11171;SDS011;5642;50.830;12.082;2023-08-21T01:59:04;3.50;;;2.72;;
11171;SDS011;5642;50.830;12.082;2023-08-21T02:01:31;2.90;;;2.70;;
11171;SDS011;5642;50.830;12.082;2023-08-21T02:03:57;2.92;;;2.72;;
11171;SDS011;5642;50.830;12.082;2023-08-21T02:06:23;3.05;;;2.85;;
11171;SDS011;5642;50.830;12.082;2023-08-21T02:08:49;3.20;;;3.00;;
11171;SDS011;5642;50.830;12.082;2023-08-21T02:11:17;3.30;;;3.10;;
11171;SDS011;5642;50.830;12.082;2023-08-21T02:13:43;3.17;;;2.97;;
11171;SDS011;5642;50.830;12.082;2023-08-21T02:16:09;3.15;;;2.95;;
11171;SDS011;5642;50.830;12.082;2023-08-21T02:18:35;3.17;;;2.97;;
11171;SDS011;5642;50.830;12.082;2023-08-21T02:21:01;2.85;;;2.65;;
11171;SDS011;5642;50.830;12.082;2023-08-21T02:23:27;3.17;;;2.97;;
11171;SDS011;5642;50.830;12.082;2023-08-21T02:25:54;2.95;;;2.75;;
11171;SDS011;5642;50.830;12.082;2023-08-21T02:28:20;3.25;;;3.05;;
11171;SDS011;5642;50.830;12.082;2023-08-21T02:30:47;3.33;;;3.13;;
11171;SDS011;5642;50.830;12.082;2023-08-21T02:33:13;3.00;;;2.80;;
11171;SDS011;5642;50.830;12.082;2023-08-21T02:35:39;3.10;;;2.90;;
11171;SDS011;5642;50.830;12.082;2023-08-21T02:38:05;2.58;;;2.38;;
11171;SDS011;5642;50.830;12.082;2023-08-21T02:40:31;2.95;;;2.75;;
11171;SDS011;5642;50.830;12.082;2023-08-21T02:42:57;3.13;;;2.92;;
11171;SDS011;5642;50.830;12.082;2023-08-21T02:45:23;2.80;;;2.60;;
11171;SDS011;5642;50.830;12.082;2023-08-21T02:47:50;3.13;;;2.50;;
11171;SDS011;5642;50.830;12.082;2023-08-21T02:50:16;2.60;;;2.40;;
11171;SDS011;5642;50.830;12.082;2023-08-21T02:52:42;2.47;;;2.38;;
11171;SDS011;5642;50.830;12.082;2023-08-21T02:55:09;2.35;;;2.25;;
11171;SDS011;5642;50.830;12.082;2023-08-21T02:57:35;2.40;;;2.30;;
11171;SDS011;5642;50.830;12.082;2023-08-21T03:00:01;2.30;;;2.20;;
11171;SDS011;5642;50.830;12.082;2023-08-21T03:02:27;2.55;;;2.45;;
11171;SDS011;5642;50.830;12.082;2023-08-21T03:04:53;2.20;;;2.10;;
11171;SDS011;5642;50.830;12.082;2023-08-21T03:07:19;2.10;;;2.00;;
11171;SDS011;5642;50.830;12.082;2023-08-21T03:09:45;2.30;;;2.20;;
11171;SDS011;5642;50.830;12.082;2023-08-21T03:12:13;2.10;;;2.00;;
11171;SDS011;5642;50.830;12.082;2023-08-21T03:14:39;2.40;;;2.20;;
11171;SDS011;5642;50.830;12.082;2023-08-21T03:17:06;2.63;;;2.42;;
11171;SDS011;5642;50.830;12.082;2023-08-21T03:19:32;2.80;;;2.60;;
11171;SDS011;5642;50.830;12.082;2023-08-21T03:21:59;4.10;;;2.85;;
11171;SDS011;5642;50.830;12.082;2023-08-21T03:24:24;3.50;;;3.05;;
11171;SDS011;5642;50.830;12.082;2023-08-21T03:26:51;2.80;;;2.60;;
11171;SDS011;5642;50.830;12.082;2023-08-21T03:29:16;2.83;;;2.63;;
11171;SDS011;5642;50.830;12.082;2023-08-21T03:31:43;2.75;;;2.50;;
11171;SDS011;5642;50.830;12.082;2023-08-21T03:34:09;2.20;;;2.10;;
11171;SDS011;5642;50.830;12.082;2023-08-21T03:36:35;2.75;;;2.55;;
11171;SDS011;5642;50.830;12.082;2023-08-21T03:39:04;3.42;;;2.70;;
11171;SDS011;5642;50.830;12.082;2023-08-21T03:41:31;3.15;;;2.90;;
11171;SDS011;5642;50.830;12.082;2023-08-21T03:43:58;2.75;;;2.55;;
11171;SDS011;5642;50.830;12.082;2023-08-21T03:46:27;2.80;;;2.60;;
11171;SDS011;5642;50.830;12.082;2023-08-21T03:48:53;3.65;;;3.35;;
11171;SDS011;5642;50.830;12.082;2023-08-21T03:51:20;3.35;;;3.00;;
11171;SDS011;5642;50.830;12.082;2023-08-21T03:53:46;3.22;;;3.03;;
11171;SDS011;5642;50.830;12.082;2023-08-21T03:56:12;3.33;;;3.03;;
11171;SDS011;5642;50.830;12.082;2023-08-21T03:58:38;3.55;;;3.35;;
11171;SDS011;5642;50.830;12.082;2023-08-21T04:01:04;3.92;;;3.63;;
11171;SDS011;5642;50.830;12.082;2023-08-21T04:03:30;3.42;;;3.20;;
11171;SDS011;5642;50.830;12.082;2023-08-21T04:05:56;3.97;;;3.67;;
11171;SDS011;5642;50.830;12.082;2023-08-21T04:08:23;4.10;;;3.80;;
11171;SDS011;5642;50.830;12.082;2023-08-21T04:10:49;3.40;;;3.20;;
11171;SDS011;5642;50.830;12.082;2023-08-21T04:13:15;4.30;;;3.90;;
11171;SDS011;5642;50.830;12.082;2023-08-21T04:15:48;3.42;;;3.22;;
11171;SDS011;5642;50.830;12.082;2023-08-21T04:18:14;3.45;;;3.25;;
11171;SDS011;5642;50.830;12.082;2023-08-21T04:20:41;2.97;;;2.70;;
11171;SDS011;5642;50.830;12.082;2023-08-21T04:23:07;3.25;;;3.05;;
11171;SDS011;5642;50.830;12.082;2023-08-21T04:25:33;3.20;;;3.00;;
11171;SDS011;5642;50.830;12.082;2023-08-21T04:28:01;3.70;;;3.40;;
11171;SDS011;5642;50.830;12.082;2023-08-21T04:30:27;3.22;;;3.03;;
11171;SDS011;5642;50.830;12.082;2023-08-21T04:32:53;3.80;;;3.35;;
11171;SDS011;5642;50.830;12.082;2023-08-21T04:35:19;3.13;;;2.92;;
11171;SDS011;5642;50.830;12.082;2023-08-21T04:37:46;3.13;;;2.92;;
11171;SDS011;5642;50.830;12.082;2023-08-21T04:40:13;3.20;;;3.00;;
11171;SDS011;5642;50.830;12.082;2023-08-21T04:42:40;4.82;;;3.05;;
11171;SDS011;5642;50.830;12.082;2023-08-21T04:45:07;3.60;;;3.38;;
11171;SDS011;5642;50.830;12.082;2023-08-21T04:47:33;3.33;;;3.00;;
11171;SDS011;5642;50.830;12.082;2023-08-21T04:49:59;3.28;;;3.08;;
11171;SDS011;5642;50.830;12.082;2023-08-21T04:52:27;3.65;;;3.35;;
11171;SDS011;5642;50.830;12.082;2023-08-21T04:54:53;3.47;;;3.28;;
11171;SDS011;5642;50.830;12.082;2023-08-21T04:57:22;3.15;;;2.95;;
11171;SDS011;5642;50.830;12.082;2023-08-21T04:59:48;3.38;;;3.10;;
11171;SDS011;5642;50.830;12.082;2023-08-21T05:02:15;3.45;;;3.25;;
11171;SDS011;5642;50.830;12.082;2023-08-21T05:04:41;3.55;;;3.35;;
11171;SDS011;5642;50.830;12.082;2023-08-21T05:07:07;3.78;;;3.47;;
11171;SDS011;5642;50.830;12.082;2023-08-21T05:09:34;3.80;;;3.50;;
11171;SDS011;5642;50.830;12.082;2023-08-21T05:12:00;3.17;;;2.95;;
11171;SDS011;5642;50.830;12.082;2023-08-21T05:14:30;3.80;;;3.50;;
11171;SDS011;5642;50.830;12.082;2023-08-21T05:16:57;3.83;;;3.53;;
11171;SDS011;5642;50.830;12.082;2023-08-21T05:19:23;3.47;;;3.28;;
11171;SDS011;5642;50.830;12.082;2023-08-21T05:21:56;3.53;;;3.33;;
11171;SDS011;5642;50.830;12.082;2023-08-21T05:24:30;3.35;;;3.15;;
11171;SDS011;5642;50.830;12.082;2023-08-21T05:26:57;3.78;;;3.53;;
11171;SDS011;5642;50.830;12.082;2023-08-21T05:29:23;3.60;;;3.40;;
11171;SDS011;5642;50.830;12.082;2023-08-21T05:31:49;4.07;;;3.60;;
11171;SDS011;5642;50.830;12.082;2023-08-21T05:34:19;3.65;;;3.17;;
11171;SDS011;5642;50.830;12.082;2023-08-21T05:36:45;3.83;;;3.60;;
11171;SDS011;5642;50.830;12.082;2023-08-21T05:39:12;3.97;;;3.67;;
11171;SDS011;5642;50.830;12.082;2023-08-21T05:41:40;4.20;;;3.90;;
11171;SDS011;5642;50.830;12.082;2023-08-21T05:44:07;3.90;;;3.60;;
11171;SDS011;5642;50.830;12.082;2023-08-21T05:46:39;4.13;;;3.83;;
11171;SDS011;5642;50.830;12.082;2023-08-21T05:49:06;4.10;;;3.80;;
11171;SDS011;5642;50.830;12.082;2023-08-21T05:51:34;4.10;;;3.80;;
11171;SDS011;5642;50.830;12.082;2023-08-21T05:54:01;3.95;;;3.65;;
11171;SDS011;5642;50.830;12.082;2023-08-21T05:56:34;4.25;;;3.95;;
11171;SDS011;5642;50.830;12.082;2023-08-21T05:59:01;4.30;;;3.97;;
11171;SDS011;5642;50.830;12.082;2023-08-21T06:01:37;4.45;;;4.05;;
11171;SDS011;5642;50.830;12.082;2023-08-21T06:04:05;4.22;;;3.83;;
11171;SDS011;5642;50.830;12.082;2023-08-21T06:06:35;4.13;;;3.83;;
11171;SDS011;5642;50.830;12.082;2023-08-21T06:09:24;4.10;;;3.80;;
11171;SDS011;5642;50.830;12.082;2023-08-21T06:11:52;4.35;;;3.95;;
11171;SDS011;5642;50.830;12.082;2023-08-21T06:14:19;3.47;;;3.28;;
11171;SDS011;5642;50.830;12.082;2023-08-21T06:16:47;3.90;;;3.60;;
11171;SDS011;5642;50.830;12.082;2023-08-21T06:19:21;4.15;;;3.75;;
11171;SDS011;5642;50.830;12.082;2023-08-21T06:21:47;3.80;;;3.50;;
11171;SDS011;5642;50.830;12.082;2023-08-21T06:24:13;4.10;;;3.72;;
11171;SDS011;5642;50.830;12.082;2023-08-21T06:26:40;4.05;;;3.75;;
11171;SDS011;5642;50.830;12.082;2023-08-21T06:29:08;3.83;;;3.53;;
11171;SDS011;5642;50.830;12.082;2023-08-21T06:31:45;3.70;;;3.50;;
11171;SDS011;5642;50.830;12.082;2023-08-21T06:34:20;4.00;;;3.70;;
11171;SDS011;5642;50.830;12.082;2023-08-21T06:36:48;3.60;;;3.40;;
11171;SDS011;5642;50.830;12.082;2023-08-21T06:39:16;4.00;;;3.70;;
11171;SDS011;5642;50.830;12.082;2023-08-21T06:41:42;3.67;;;3.47;;
11171;SDS011;5642;50.830;12.082;2023-08-21T06:44:09;3.88;;;3.58;;
11171;SDS011;5642;50.830;12.082;2023-08-21T06:46:42;3.70;;;3.42;;
11171;SDS011;5642;50.830;12.082;2023-08-21T06:49:14;3.28;;;3.08;;
11171;SDS011;5642;50.830;12.082;2023-08-21T06:52:07;3.50;;;3.20;;
11171;SDS011;5642;50.830;12.082;2023-08-21T06:54:41;3.15;;;2.95;;
11171;SDS011;5642;50.830;12.082;2023-08-21T06:57:10;3.22;;;3.03;;
11171;SDS011;5642;50.830;12.082;2023-08-21T06:59:41;3.50;;;3.30;;
11171;SDS011;5642;50.830;12.082;2023-08-21T07:02:09;2.90;;;2.70;;
11171;SDS011;5642;50.830;12.082;2023-08-21T07:04:38;2.67;;;2.47;;
11171;SDS011;5642;50.830;12.082;2023-08-21T07:07:12;3.03;;;2.83;;
11171;SDS011;5642;50.830;12.082;2023-08-21T07:10:00;2.95;;;2.75;;
11171;SDS011;5642;50.830;12.082;2023-08-21T07:12:40;3.00;;;2.80;;
11171;SDS011;5642;50.830;12.082;2023-08-21T07:15:08;2.90;;;2.70;;
11171;SDS011;5642;50.830;12.082;2023-08-21T07:17:52;2.50;;;2.30;;
11171;SDS011;5642;50.830;12.082;2023-08-21T07:20:20;2.25;;;2.15;;
11171;SDS011;5642;50.830;12.082;2023-08-21T07:22:50;2.15;;;2.05;;
11171;SDS011;5642;50.830;12.082;2023-08-21T07:25:17;2.58;;;2.47;;
11171;SDS011;5642;50.830;12.082;2023-08-21T07:27:48;2.50;;;2.17;;
11171;SDS011;5642;50.830;12.082;2023-08-21T07:30:33;2.58;;;2.20;;
11171;SDS011;5642;50.830;12.082;2023-08-21T07:33:18;2.28;;;2.00;;
11171;SDS011;5642;50.830;12.082;2023-08-21T07:36:05;1.98;;;1.88;;
11171;SDS011;5642;50.830;12.082;2023-08-21T07:38:38;2.45;;;2.25;;
11171;SDS011;5642;50.830;12.082;2023-08-21T07:41:14;1.88;;;1.77;;
11171;SDS011;5642;50.830;12.082;2023-08-21T07:43:42;2.00;;;1.90;;
11171;SDS011;5642;50.830;12.082;2023-08-21T07:46:13;2.05;;;1.95;;
11171;SDS011;5642;50.830;12.082;2023-08-21T07:48:45;2.30;;;2.20;;
11171;SDS011;5642;50.830;12.082;2023-08-21T07:51:13;2.00;;;1.90;;
11171;SDS011;5642;50.830;12.082;2023-08-21T07:53:42;2.20;;;2.00;;
11171;SDS011;5642;50.830;12.082;2023-08-21T07:56:13;1.80;;;1.70;;
11171;SDS011;5642;50.830;12.082;2023-08-21T07:58:48;2.20;;;2.00;;
11171;SDS011;5642;50.830;12.082;2023-08-21T08:01:17;2.78;;;2.30;;
11171;SDS011;5642;50.830;12.082;2023-08-21T08:04:12;2.20;;;2.10;;
11171;SDS011;5642;50.830;12.082;2023-08-21T08:06:43;1.92;;;1.83;;
11171;SDS011;5642;50.830;12.082;2023-08-21T08:09:12;2.20;;;2.10;;
11171;SDS011;5642;50.830;12.082;2023-08-21T08:11:43;2.10;;;2.00;;
11171;SDS011;5642;50.830;12.082;2023-08-21T08:14:11;2.25;;;2.05;;
11171;SDS011;5642;50.830;12.082;2023-08-21T08:16:39;1.92;;;1.83;;
11171;SDS011;5642;50.830;12.082;2023-08-21T08:19:10;1.83;;;1.73;;
11171;SDS011;5642;50.830;12.082;2023-08-21T08:21:53;1.88;;;1.77;;
11171;SDS011;5642;50.830;12.082;2023-08-21T08:24:23;1.88;;;1.77;;
11171;SDS011;5642;50.830;12.082;2023-08-21T08:26:52;2.00;;;1.90;;
11171;SDS011;5642;50.830;12.082;2023-08-21T08:29:22;1.92;;;1.83;;
11171;SDS011;5642;50.830;12.082;2023-08-21T08:31:49;1.85;;;1.75;;
11171;SDS011;5642;50.830;12.082;2023-08-21T08:34:28;1.85;;;1.75;;
11171;SDS011;5642;50.830;12.082;2023-08-21T08:36:56;1.77;;;1.67;;
11171;SDS011;5642;50.830;12.082;2023-08-21T08:39:23;1.73;;;1.63;;
11171;SDS011;5642;50.830;12.082;2023-08-21T08:42:02;1.63;;;1.52;;
11171;SDS011;5642;50.830;12.082;2023-08-21T08:44:32;1.70;;;1.60;;
11171;SDS011;5642;50.830;12.082;2023-08-21T08:47:03;1.90;;;1.80;;
11171;SDS011;5642;50.830;12.082;2023-08-21T08:49:39;1.80;;;1.70;;
11171;SDS011;5642;50.830;12.082;2023-08-21T08:52:06;1.60;;;1.50;;
11171;SDS011;5642;50.830;12.082;2023-08-21T08:54:33;1.60;;;1.50;;
11171;SDS011;5642;50.830;12.082;2023-08-21T08:57:01;1.50;;;1.50;;
11171;SDS011;5642;50.830;12.082;2023-08-21T08:59:29;2.08;;;1.70;;
11171;SDS011;5642;50.830;12.082;2023-08-21T09:02:00;1.40;;;1.40;;
11171;SDS011;5642;50.830;12.082;2023-08-21T09:04:30;1.65;;;1.55;;
11171;SDS011;5642;50.830;12.082;2023-08-21T09:07:06;1.35;;;1.25;;
11171;SDS011;5642;50.830;12.082;2023-08-21T09:09:49;1.50;;;1.40;;
11171;SDS011;5642;50.830;12.082;2023-08-21T09:12:18;1.60;;;1.50;;
11171;SDS011;5642;50.830;12.082;2023-08-21T09:14:51;1.60;;;1.50;;
11171;SDS011;5642;50.830;12.082;2023-08-21T09:17:18;1.23;;;1.23;;
11171;SDS011;5642;50.830;12.082;2023-08-21T09:19:46;1.38;;;1.38;;
11171;SDS011;5642;50.830;12.082;2023-08-21T09:22:26;1.52;;;1.42;;
11171;SDS011;5642;50.830;12.082;2023-08-21T09:25:13;1.65;;;1.55;;
11171;SDS011;5642;50.830;12.082;2023-08-21T09:27:59;1.70;;;1.60;;
11171;SDS011;5642;50.830;12.082;2023-08-21T09:30:51;1.58;;;1.48;;
11171;SDS011;5642;50.830;12.082;2023-08-21T09:33:29;1.33;;;1.30;;
11171;SDS011;5642;50.830;12.082;2023-08-21T09:36:11;1.60;;;1.50;;
11171;SDS011;5642;50.830;12.082;2023-08-21T09:38:59;1.63;;;1.52;;
11171;SDS011;5642;50.830;12.082;2023-08-21T09:41:55;1.52;;;1.50;;
11171;SDS011;5642;50.830;12.082;2023-08-21T09:45:00;1.70;;;1.60;;
11171;SDS011;5642;50.830;12.082;2023-08-21T09:47:27;1.55;;;1.45;;
11171;SDS011;5642;50.830;12.082;2023-08-21T09:50:07;1.50;;;1.40;;
11171;SDS011;5642;50.830;12.082;2023-08-21T09:52:52;1.63;;;1.52;;
11171;SDS011;5642;50.830;12.082;2023-08-21T09:55:21;1.40;;;1.30;;
11171;SDS011;5642;50.830;12.082;2023-08-21T09:57:52;1.60;;;1.50;;
11171;SDS011;5642;50.830;12.082;2023-08-21T10:00:28;1.73;;;1.60;;
11171;SDS011;5642;50.830;12.082;2023-08-21T10:03:04;1.50;;;1.50;;
11171;SDS011;5642;50.830;12.082;2023-08-21T10:05:46;1.90;;;1.80;;
11171;SDS011;5642;50.830;12.082;2023-08-21T10:08:15;1.77;;;1.70;;
11171;SDS011;5642;50.830;12.082;2023-08-21T10:10:54;1.60;;;1.50;;
11171;SDS011;5642;50.830;12.082;2023-08-21T10:13:50;1.63;;;1.55;;
11171;SDS011;5642;50.830;12.082;2023-08-21T10:16:26;1.77;;;1.67;;
11171;SDS011;5642;50.830;12.082;2023-08-21T10:19:04;1.60;;;1.55;;
11171;SDS011;5642;50.830;12.082;2023-08-21T10:21:41;1.70;;;1.60;;
11171;SDS011;5642;50.830;12.082;2023-08-21T10:24:11;1.77;;;1.67;;
11171;SDS011;5642;50.830;12.082;2023-08-21T10:26:39;1.70;;;1.60;;
11171;SDS011;5642;50.830;12.082;2023-08-21T10:29:11;3.03;;;1.90;;
11171;SDS011;5642;50.830;12.082;2023-08-21T10:31:47;1.70;;;1.60;;
11171;SDS011;5642;50.830;12.082;2023-08-21T10:34:37;1.83;;;1.73;;
11171;SDS011;5642;50.830;12.082;2023-08-21T10:37:06;1.98;;;1.88;;
11171;SDS011;5642;50.830;12.082;2023-08-21T10:39:36;2.20;;;2.10;;
11171;SDS011;5642;50.830;12.082;2023-08-21T10:42:09;2.20;;;2.10;;
11171;SDS011;5642;50.830;12.082;2023-08-21T10:44:54;2.13;;;2.03;;
11171;SDS011;5642;50.830;12.082;2023-08-21T10:47:41;2.20;;;2.10;;
11171;SDS011;5642;50.830;12.082;2023-08-21T10:50:26;2.30;;;2.20;;
11171;SDS011;5642;50.830;12.082;2023-08-21T10:53:07;2.38;;;2.28;;
11171;SDS011;5642;50.830;12.082;2023-08-21T10:55:44;2.30;;;2.20;;
11171;SDS011;5642;50.830;12.082;2023-08-21T10:58:37;2.17;;;2.08;;
11171;SDS011;5642;50.830;12.082;2023-08-21T11:01:22;1.98;;;1.85;;
11171;SDS011;5642;50.830;12.082;2023-08-21T11:04:11;2.20;;;2.10;;
11171;SDS011;5642;50.830;12.082;2023-08-21T11:06:50;2.00;;;1.90;;
11171;SDS011;5642;50.830;12.082;2023-08-21T11:09:40;2.05;;;1.90;;
11171;SDS011;5642;50.830;12.082;2023-08-21T11:12:14;2.10;;;2.00;;
11171;SDS011;5642;50.830;12.082;2023-08-21T11:15:03;1.98;;;1.88;;
11171;SDS011;5642;50.830;12.082;2023-08-21T11:17:37;2.10;;;2.00;;
11171;SDS011;5642;50.830;12.082;2023-08-21T11:23:41;2.40;;;2.20;;
11171;SDS011;5642;50.830;12.082;2023-08-21T11:26:12;2.25;;;2.10;;
11171;SDS011;5642;50.830;12.082;2023-08-21T11:28:48;2.30;;;2.20;;
11171;SDS011;5642;50.830;12.082;2023-08-21T11:31:19;2.40;;;2.20;;
11171;SDS011;5642;50.830;12.082;2023-08-21T11:33:50;2.08;;;1.98;;
11171;SDS011;5642;50.830;12.082;2023-08-21T11:36:20;2.10;;;1.90;;
11171;SDS011;5642;50.830;12.082;2023-08-21T11:38:58;1.95;;;1.83;;
11171;SDS011;5642;50.830;12.082;2023-08-21T11:41:53;2.22;;;2.13;;
11171;SDS011;5642;50.830;12.082;2023-08-21T11:44:33;2.28;;;2.08;;
11171;SDS011;5642;50.830;12.082;2023-08-21T11:47:15;2.10;;;2.00;;
11171;SDS011;5642;50.830;12.082;2023-08-21T11:49:47;2.42;;;2.28;;
11171;SDS011;5642;50.830;12.082;2023-08-21T11:52:19;2.40;;;2.20;;
11171;SDS011;5642;50.830;12.082;2023-08-21T11:54:53;1.98;;;1.88;;
11171;SDS011;5642;50.830;12.082;2023-08-21T11:57:28;2.47;;;2.28;;
11171;SDS011;5642;50.830;12.082;2023-08-21T11:59:56;2.03;;;1.92;;
11171;SDS011;5642;50.830;12.082;2023-08-21T12:02:35;2.25;;;2.15;;
11171;SDS011;5642;50.830;12.082;2023-08-21T12:05:13;2.13;;;2.03;;
11171;SDS011;5642;50.830;12.082;2023-08-21T12:07:49;2.25;;;2.15;;
11171;SDS011;5642;50.830;12.082;2023-08-21T12:10:23;2.78;;;2.55;;
11171;SDS011;5642;50.830;12.082;2023-08-21T12:12:52;2.40;;;2.20;;
11171;SDS011;5642;50.830;12.082;2023-08-21T12:15:42;2.60;;;2.40;;
11171;SDS011;5642;50.830;12.082;2023-08-21T12:18:10;2.75;;;2.55;;
11171;SDS011;5642;50.830;12.082;2023-08-21T12:20:40;2.45;;;2.33;;
11171;SDS011;5642;50.830;12.082;2023-08-21T12:23:26;2.33;;;2.20;;
11171;SDS011;5642;50.830;12.082;2023-08-21T12:25:55;2.92;;;2.70;;
11171;SDS011;5642;50.830;12.082;2023-08-21T12:28:25;2.60;;;2.40;;
11171;SDS011;5642;50.830;12.082;2023-08-21T12:30:58;2.38;;;2.17;;
11171;SDS011;5642;50.830;12.082;2023-08-21T12:33:28;2.60;;;2.45;;
11171;SDS011;5642;50.830;12.082;2023-08-21T12:36:03;2.40;;;2.20;;
11171;SDS011;5642;50.830;12.082;2023-08-21T12:38:32;2.63;;;2.42;;
11171;SDS011;5642;50.830;12.082;2023-08-21T12:41:09;2.35;;;2.25;;
11171;SDS011;5642;50.830;12.082;2023-08-21T12:43:43;2.33;;;2.17;;
11171;SDS011;5642;50.830;12.082;2023-08-21T12:46:09;2.40;;;2.30;;
11171;SDS011;5642;50.830;12.082;2023-08-21T12:48:39;2.30;;;2.20;;
11171;SDS011;5642;50.830;12.082;2023-08-21T12:51:06;2.50;;;2.30;;
11171;SDS011;5642;50.830;12.082;2023-08-21T12:53:50;2.30;;;2.10;;
11171;SDS011;5642;50.830;12.082;2023-08-21T12:56:19;3.17;;;2.47;;
11171;SDS011;5642;50.830;12.082;2023-08-21T12:58:48;2.33;;;2.22;;
11171;SDS011;5642;50.830;12.082;2023-08-21T13:01:17;2.67;;;2.47;;
11171;SDS011;5642;50.830;12.082;2023-08-21T13:03:52;2.47;;;2.30;;
11171;SDS011;5642;50.830;12.082;2023-08-21T13:06:20;2.78;;;2.58;;
11171;SDS011;5642;50.830;12.082;2023-08-21T13:08:55;2.40;;;2.30;;
11171;SDS011;5642;50.830;12.082;2023-08-21T13:11:22;2.28;;;2.17;;
11171;SDS011;5642;50.830;12.082;2023-08-21T13:13:49;2.35;;;2.17;;
11171;SDS011;5642;50.830;12.082;2023-08-21T13:16:17;2.10;;;2.00;;
11171;SDS011;5642;50.830;12.082;2023-08-21T13:18:55;2.35;;;2.17;;
11171;SDS011;5642;50.830;12.082;2023-08-21T13:21:23;2.50;;;2.30;;
11171;SDS011;5642;50.830;12.082;2023-08-21T13:23:55;2.30;;;2.20;;
11171;SDS011;5642;50.830;12.082;2023-08-21T13:26:37;2.58;;;2.38;;
11171;SDS011;5642;50.830;12.082;2023-08-21T13:29:10;2.25;;;2.03;;
11171;SDS011;5642;50.830;12.082;2023-08-21T13:31:37;2.83;;;2.50;;
11171;SDS011;5642;50.830;12.082;2023-08-21T13:34:03;2.10;;;2.00;;
11171;SDS011;5642;50.830;12.082;2023-08-21T13:36:33;2.17;;;1.98;;
11171;SDS011;5642;50.830;12.082;2023-08-21T13:39:01;2.20;;;2.08;;
11171;SDS011;5642;50.830;12.082;2023-08-21T13:41:36;2.30;;;2.20;;
11171;SDS011;5642;50.830;12.082;2023-08-21T13:44:05;2.08;;;1.98;;
11171;SDS011;5642;50.830;12.082;2023-08-21T13:46:34;2.00;;;1.90;;
11171;SDS011;5642;50.830;12.082;2023-08-21T13:49:06;2.20;;;2.00;;
11171;SDS011;5642;50.830;12.082;2023-08-21T13:51:46;2.20;;;2.10;;
11171;SDS011;5642;50.830;12.082;2023-08-21T13:54:13;2.58;;;2.40;;
11171;SDS011;5642;50.830;12.082;2023-08-21T13:56:40;2.58;;;2.17;;
11171;SDS011;5642;50.830;12.082;2023-08-21T13:59:07;2.05;;;1.95;;
11171;SDS011;5642;50.830;12.082;2023-08-21T14:01:34;2.60;;;2.40;;
11171;SDS011;5642;50.830;12.082;2023-08-21T14:04:00;2.00;;;1.90;;
11171;SDS011;5642;50.830;12.082;2023-08-21T14:06:31;2.60;;;2.05;;
11171;SDS011;5642;50.830;12.082;2023-08-21T14:08:58;2.10;;;2.00;;
11171;SDS011;5642;50.830;12.082;2023-08-21T14:11:26;2.22;;;2.03;;
11171;SDS011;5642;50.830;12.082;2023-08-21T14:13:52;2.10;;;2.00;;
11171;SDS011;5642;50.830;12.082;2023-08-21T14:16:20;2.30;;;2.10;;
11171;SDS011;5642;50.830;12.082;2023-08-21T14:18:46;2.17;;;2.08;;
11171;SDS011;5642;50.830;12.082;2023-08-21T14:21:13;2.35;;;2.15;;
11171;SDS011;5642;50.830;12.082;2023-08-21T14:23:40;2.53;;;2.35;;
11171;SDS011;5642;50.830;12.082;2023-08-21T14:26:07;2.10;;;2.00;;
11171;SDS011;5642;50.830;12.082;2023-08-21T14:28:34;2.13;;;2.03;;
11171;SDS011;5642;50.830;12.082;2023-08-21T14:31:04;1.95;;;1.85;;
11171;SDS011;5642;50.830;12.082;2023-08-21T14:33:36;1.90;;;1.80;;
11171;SDS011;5642;50.830;12.082;2023-08-21T14:36:03;2.05;;;1.90;;
11171;SDS011;5642;50.830;12.082;2023-08-21T14:38:32;2.15;;;1.95;;
11171;SDS011;5642;50.830;12.082;2023-08-21T14:40:58;2.00;;;1.90;;
11171;SDS011;5642;50.830;12.082;2023-08-21T14:43:25;1.90;;;1.80;;
11171;SDS011;5642;50.830;12.082;2023-08-21T14:45:52;1.92;;;1.83;;
11171;SDS011;5642;50.830;12.082;2023-08-21T14:48:21;1.90;;;1.80;;
11171;SDS011;5642;50.830;12.082;2023-08-21T14:50:48;2.10;;;2.00;;
11171;SDS011;5642;50.830;12.082;2023-08-21T14:53:15;2.30;;;1.95;;
11171;SDS011;5642;50.830;12.082;2023-08-21T14:55:41;2.30;;;2.17;;
11171;SDS011;5642;50.830;12.082;2023-08-21T14:58:07;2.00;;;1.90;;
11171;SDS011;5642;50.830;12.082;2023-08-21T15:00:35;2.75;;;2.08;;
11171;SDS011;5642;50.830;12.082;2023-08-21T15:03:10;2.13;;;2.00;;
11171;SDS011;5642;50.830;12.082;2023-08-21T15:05:37;1.80;;;1.70;;
11171;SDS011;5642;50.830;12.082;2023-08-21T15:08:03;2.35;;;2.15;;
11171;SDS011;5642;50.830;12.082;2023-08-21T15:10:30;2.00;;;1.90;;
11171;SDS011;5642;50.830;12.082;2023-08-21T15:12:56;1.85;;;1.75;;
11171;SDS011;5642;50.830;12.082;2023-08-21T15:15:23;2.17;;;1.98;;
11171;SDS011;5642;50.830;12.082;2023-08-21T15:17:51;1.75;;;1.65;;
11171;SDS011;5642;50.830;12.082;2023-08-21T15:20:18;1.90;;;1.80;;